createdAt,value
2023-01-31T00:02:05.438Z,98083.88
2023-01-31T00:05:20.172Z,98084.30
2023-01-31T00:08:32.560Z,98090.99
2023-01-31T00:11:44.993Z,98078.86
2023-01-31T00:14:58.897Z,98077.17
2023-01-31T00:18:11.337Z,98082.41
2023-01-31T00:21:27.018Z,98085.02
2023-01-31T00:24:39.088Z,98104.50
2023-01-31T00:27:51.238Z,98107.34
2023-01-31T00:31:05.740Z,98095.48
2023-01-31T00:34:18.931Z,98096.64
2023-01-31T00:37:31.141Z,98111.94
2023-01-31T00:40:43.617Z,98117.58
2023-01-31T00:43:59.674Z,98123.66
2023-01-31T00:47:11.901Z,98123.73
2023-01-31T00:50:25.701Z,98115.16
2023-01-31T00:53:39.840Z,98121.13
2023-01-31T00:56:51.845Z,98123.00
2023-01-31T01:00:04.050Z,98124.47
2023-01-31T01:03:16.667Z,98123.55
2023-01-31T01:06:30.541Z,98116.55
2023-01-31T01:09:42.530Z,98125.13
2023-01-31T01:12:54.607Z,98140.83
2023-01-31T01:16:13.034Z,98150.02
2023-01-31T01:19:26.323Z,98148.84
2023-01-31T01:22:39.682Z,98154.58
2023-01-31T01:25:52.660Z,98148.50
2023-01-31T01:29:08.067Z,98146.63
2023-01-31T01:32:20.399Z,98147.47
2023-01-31T01:35:33.005Z,98151.56
2023-01-31T01:38:46.402Z,98149.57
2023-01-31T01:41:58.462Z,98165.08
2023-01-31T01:45:21.308Z,98166.11
2023-01-31T01:48:35.069Z,98169.58
2023-01-31T01:51:49.057Z,98169.47
2023-01-31T01:55:06.801Z,98172.71
2023-01-31T01:58:23.840Z,98163.39
2023-01-31T02:01:36.258Z,98170.09
2023-01-31T02:04:53.439Z,98173.45
2023-01-31T02:08:07.282Z,98176.80
2023-01-31T02:11:25.747Z,98187.93
2023-01-31T02:14:38.014Z,98186.23
2023-01-31T02:17:50.298Z,98171.97
2023-01-31T02:21:58.615Z,98195.67
2023-01-31T02:25:57.989Z,98193.57
2023-01-31T02:29:42.185Z,98200.50
2023-01-31T02:33:05.113Z,98209.09
2023-01-31T02:36:26.835Z,98212.44
2023-01-31T02:39:45.593Z,98220.81
2023-01-31T02:43:05.789Z,98225.02
2023-01-31T02:46:22.194Z,98220.52
2023-01-31T02:49:41.137Z,98230.88
2023-01-31T02:53:03.370Z,98232.56
2023-01-31T02:56:25.144Z,98230.69
2023-01-31T02:59:39.078Z,98240.94
2023-01-31T03:02:51.108Z,98247.87
2023-01-31T03:06:48.673Z,98261.69
2023-01-31T03:10:09.012Z,98264.94
2023-01-31T03:13:42.668Z,98263.88
2023-01-31T03:17:13.952Z,98273.20
2023-01-31T03:20:32.013Z,98269.66
2023-01-31T03:23:45.287Z,98267.56
2023-01-31T03:26:57.702Z,98272.61
2023-01-31T03:30:18.546Z,98280.36
2023-01-31T03:33:35.432Z,98284.55
2023-01-31T03:36:55.003Z,98289.91
2023-01-31T03:40:30.766Z,98295.77
2023-01-31T03:43:48.508Z,98300.90
2023-01-31T03:47:06.061Z,98304.36
2023-01-31T03:50:24.509Z,98306.98
2023-01-31T03:53:43.162Z,98303.41
2023-01-31T03:57:00.993Z,98315.77
2023-01-31T04:00:19.901Z,98321.11
2023-01-31T04:03:39.730Z,98317.46
2023-01-31T04:06:52.473Z,98321.22
2023-01-31T04:10:05.648Z,98325.50
2023-01-31T04:13:17.944Z,98333.36
2023-01-31T04:16:29.994Z,98333.36
2023-01-31T04:19:41.891Z,98330.96
2023-01-31T04:22:53.898Z,98342.17
2023-01-31T04:26:06.094Z,98337.86
2023-01-31T04:29:18.231Z,98342.36
2023-01-31T04:32:30.142Z,98347.59
2023-01-31T04:35:42.304Z,98345.20
2023-01-31T04:38:54.203Z,98357.55
2023-01-31T04:42:05.985Z,98356.99
2023-01-31T04:45:19.646Z,98369.34
2023-01-31T04:48:31.875Z,98378.37
2023-01-31T04:51:44.048Z,98383.79
2023-01-31T04:54:56.054Z,98390.27
2023-01-31T04:58:08.785Z,98403.45
2023-01-31T05:01:20.790Z,98399.14
2023-01-31T05:04:32.846Z,98404.48
2023-01-31T05:07:45.839Z,98408.13
2023-01-31T05:11:05.857Z,98411.70
2023-01-31T05:14:18.552Z,98424.05
2023-01-31T05:17:31.527Z,98421.60
2023-01-31T05:20:45.107Z,98432.92
2023-01-31T05:23:57.490Z,98434.90
2023-01-31T05:27:09.918Z,98441.05
2023-01-31T05:30:24.276Z,98456.97
2023-01-31T05:33:36.575Z,98455.57
2023-01-31T05:36:49.212Z,98467.81
2023-01-31T05:40:01.211Z,98458.36
2023-01-31T05:43:13.316Z,98466.11
2023-01-31T05:46:25.527Z,98471.34
2023-01-31T05:49:37.606Z,98483.52
2023-01-31T05:52:50.128Z,98490.23
2023-01-31T05:56:02.592Z,98491.80
2023-01-31T05:59:15.274Z,98504.07
2023-01-31T06:02:27.228Z,98504.81
2023-01-31T06:05:40.594Z,98505.56
2023-01-31T06:08:52.746Z,98502.84
2023-01-31T06:12:05.096Z,98510.59
2023-01-31T06:15:19.037Z,98514.81
2023-01-31T06:18:31.878Z,98526.13
2023-01-31T06:21:44.448Z,98538.16
2023-01-31T06:24:56.434Z,98546.87
2023-01-31T06:28:08.864Z,98539.86
2023-01-31T06:31:21.122Z,98558.08
2023-01-31T06:34:33.550Z,98563.15
2023-01-31T06:37:45.718Z,98567.64
2023-01-31T06:40:57.889Z,98567.64
2023-01-31T06:44:10.200Z,98568.76
2023-01-31T06:47:22.267Z,98575.76
2023-01-31T06:50:34.556Z,98582.11
2023-01-31T06:53:46.506Z,98592.69
2023-01-31T06:56:58.520Z,98603.16
2023-01-31T07:00:13.523Z,98607.54
2023-01-31T07:03:25.497Z,98606.69
2023-01-31T07:06:37.535Z,98618.86
2023-01-31T07:09:49.634Z,98623.05
2023-01-31T07:13:02.185Z,98632.86
2023-01-31T07:16:17.030Z,98648.30
2023-01-31T07:19:29.213Z,98645.48
2023-01-31T07:22:41.421Z,98654.94
2023-01-31T07:25:53.579Z,98660.18
2023-01-31T07:29:05.648Z,98656.64
2023-01-31T07:32:18.057Z,98661.69
2023-01-31T07:35:30.189Z,98680.76
2023-01-31T07:38:42.351Z,98672.16
2023-01-31T07:41:54.451Z,98666.92
2023-01-31T07:45:22.436Z,98668.69
2023-01-31T07:48:24.000Z,98673.00
2023-01-31T07:51:36.115Z,98680.01
2023-01-31T07:54:47.932Z,98679.16
2023-01-31T07:57:59.827Z,98679.09
2023-01-31T08:01:26.854Z,98685.24
2023-01-31T08:04:37.866Z,98680.01
2023-01-31T08:07:52.366Z,98681.34
2023-01-31T08:11:05.295Z,98680.30
2023-01-31T08:14:17.374Z,98685.63
2023-01-31T08:17:29.541Z,98690.41
2023-01-31T08:20:42.051Z,98692.11
2023-01-31T08:23:55.445Z,98704.15
2023-01-31T08:27:07.834Z,98708.38
2023-01-31T08:30:22.059Z,98716.13
2023-01-31T08:33:34.234Z,98719.33
2023-01-31T08:36:46.732Z,98723.98
2023-01-31T08:39:58.703Z,98726.44
2023-01-31T08:43:10.536Z,98716.13
2023-01-31T08:46:23.019Z,98724.58
2023-01-31T08:49:37.167Z,98733.08
2023-01-31T08:52:49.149Z,98736.35
2023-01-31T08:56:07.795Z,98727.38
2023-01-31T08:59:20.419Z,98743.38
2023-01-31T09:02:32.594Z,98738.82
2023-01-31T09:05:44.766Z,98744.61
2023-01-31T09:08:57.217Z,98747.81
2023-01-31T09:12:11.771Z,98752.58
2023-01-31T09:15:24.457Z,98746.31
2023-01-31T09:18:36.937Z,98764.67
2023-01-31T09:21:49.128Z,98750.23
2023-01-31T09:25:01.081Z,98759.02
2023-01-31T09:28:13.223Z,98755.20
2023-01-31T09:31:26.596Z,98750.81
2023-01-31T09:34:39.017Z,98746.48
2023-01-31T09:37:50.962Z,98751.16
2023-01-31T09:41:07.365Z,98756.97
2023-01-31T09:44:24.080Z,98756.59
2023-01-31T09:47:40.989Z,98756.80
2023-01-31T09:50:58.730Z,98754.18
2023-01-31T09:54:17.273Z,98753.23
2023-01-31T09:57:40.329Z,98756.59
2023-01-31T10:00:59.033Z,98760.52
2023-01-31T10:04:33.427Z,98760.82
2023-01-31T10:07:52.810Z,98750.81
2023-01-31T10:11:11.560Z,98761.67
2023-01-31T10:14:34.427Z,98757.45
2023-01-31T10:17:53.139Z,98752.47
2023-01-31T10:21:11.052Z,98756.69
2023-01-31T10:24:29.203Z,98756.22
2023-01-31T10:27:50.692Z,98766.23
2023-01-31T10:31:09.789Z,98768.69
2023-01-31T10:34:26.102Z,98769.13
2023-01-31T10:37:45.988Z,98766.34
2023-01-31T10:41:03.318Z,98771.30
2023-01-31T10:44:25.559Z,98765.86
2023-01-31T10:47:41.282Z,98774.95
2023-01-31T10:51:05.239Z,98769.23
2023-01-31T10:54:29.906Z,98761.27
2023-01-31T10:57:42.158Z,98780.36
2023-01-31T11:00:55.241Z,98779.55
2023-01-31T11:04:13.752Z,98768.59
2023-01-31T11:07:26.640Z,98773.63
2023-01-31T11:10:40.443Z,98768.11
2023-01-31T11:14:05.395Z,98760.72
2023-01-31T11:17:25.236Z,98761.84
2023-01-31T11:20:40.815Z,98751.52
2023-01-31T11:23:53.140Z,98765.38
2023-01-31T11:27:10.661Z,98754.89
2023-01-31T11:30:36.225Z,98755.63
2023-01-31T11:33:53.315Z,98751.03
2023-01-31T11:37:11.470Z,98751.52
2023-01-31T11:40:34.842Z,98758.46
2023-01-31T11:43:49.285Z,98761.45
2023-01-31T11:47:05.304Z,98762.59
2023-01-31T11:50:28.953Z,98759.59
2023-01-31T11:53:47.236Z,98756.23
2023-01-31T11:57:00.428Z,98750.61
2023-01-31T12:00:26.546Z,98746.58
2023-01-31T12:03:51.809Z,98748.52
2023-01-31T12:07:08.285Z,98753.66
2023-01-31T12:10:47.150Z,98743.66
2023-01-31T12:14:06.817Z,98748.84
2023-01-31T12:17:22.378Z,98740.85
2023-01-31T12:20:44.724Z,98735.14
2023-01-31T12:24:04.913Z,98742.91
2023-01-31T12:27:30.263Z,98732.80
2023-01-31T12:31:21.589Z,98736.09
2023-01-31T12:34:59.453Z,98725.67
2023-01-31T12:38:11.976Z,98736.73
2023-01-31T12:41:36.077Z,98734.29
2023-01-31T12:44:55.369Z,98734.11
2023-01-31T12:48:36.948Z,98734.48
2023-01-31T12:51:55.789Z,98725.91
2023-01-31T12:55:21.036Z,98727.89
2023-01-31T12:58:49.635Z,98725.38
2023-01-31T13:02:07.170Z,98732.19
2023-01-31T13:05:30.812Z,98723.18
2023-01-31T13:08:57.066Z,98705.82
2023-01-31T13:12:07.116Z,98712.42
2023-01-31T13:15:25.853Z,98701.87
2023-01-31T13:18:40.901Z,98704.73
2023-01-31T13:21:58.853Z,98705.42
2023-01-31T13:25:19.488Z,98706.33
2023-01-31T13:28:36.563Z,98705.59
2023-01-31T13:31:55.157Z,98706.48
2023-01-31T13:35:14.138Z,98709.11
2023-01-31T13:38:28.262Z,98703.33
2023-01-31T13:41:41.295Z,98714.00
2023-01-31T13:44:55.002Z,98711.77
2023-01-31T13:48:12.560Z,98692.27
2023-01-31T13:51:29.467Z,98704.78
2023-01-31T13:54:45.803Z,98705.27
2023-01-31T13:58:06.713Z,98693.44
2023-01-31T14:01:26.310Z,98697.04
2023-01-31T14:04:43.666Z,98699.09
2023-01-31T14:08:20.478Z,98700.15
2023-01-31T14:11:48.913Z,98705.66
2023-01-31T14:15:03.861Z,98698.93
2023-01-31T14:18:16.659Z,98704.81
2023-01-31T14:22:03.486Z,98701.92
2023-01-31T14:25:21.351Z,98701.92
2023-01-31T14:28:36.009Z,98690.79
2023-01-31T14:31:48.923Z,98687.42
2023-01-31T14:35:02.751Z,98686.67
2023-01-31T14:38:21.731Z,98681.53
2023-01-31T14:41:40.854Z,98686.78
2023-01-31T14:45:05.268Z,98689.47
2023-01-31T14:48:38.599Z,98684.71
2023-01-31T14:52:06.895Z,98676.67
2023-01-31T14:55:41.275Z,98676.67
2023-01-31T14:58:54.621Z,98677.80
2023-01-31T15:02:22.502Z,98669.94
2023-01-31T15:05:51.713Z,98676.74
2023-01-31T15:09:41.794Z,98674.33
2023-01-31T15:13:05.084Z,98676.48
2023-01-31T15:16:26.739Z,98667.13
2023-01-31T15:19:47.506Z,98671.06
2023-01-31T15:23:07.203Z,98664.33
2023-01-31T15:29:28.789Z,98670.42
2023-01-31T15:32:45.974Z,98668.98
2023-01-31T15:36:04.183Z,98663.95
2023-01-31T15:39:27.381Z,98668.70
2023-01-31T15:42:40.498Z,98661.15
2023-01-31T15:45:53.159Z,98667.20
2023-01-31T15:49:06.570Z,98653.56
2023-01-31T15:52:24.643Z,98657.20
2023-01-31T15:55:38.720Z,98656.08
2023-01-31T15:58:55.468Z,98654.48
2023-01-31T16:02:16.379Z,98644.30
2023-01-31T16:05:31.578Z,98639.44
2023-01-31T16:08:45.092Z,98640.62
2023-01-31T16:11:57.784Z,98627.47
2023-01-31T16:15:21.026Z,98624.84
2023-01-31T16:18:33.733Z,98622.03
2023-01-31T16:21:49.370Z,98621.02
2023-01-31T16:25:04.253Z,98618.13
2023-01-31T16:28:19.593Z,98615.78
2023-01-31T16:31:36.958Z,98621.38
2023-01-31T16:34:49.869Z,98617.36
2023-01-31T16:38:11.898Z,98617.72
2023-01-31T16:41:30.225Z,98619.59
2023-01-31T16:44:46.875Z,98611.84
2023-01-31T16:47:59.387Z,98617.50
2023-01-31T16:51:46.097Z,98622.83
2023-01-31T16:55:02.708Z,98619.36
2023-01-31T16:58:18.194Z,98613.38
2023-01-31T17:01:34.837Z,98609.00
2023-01-31T17:04:48.365Z,98617.30
2023-01-31T17:08:01.704Z,98604.97
2023-01-31T17:11:23.582Z,98607.39
2023-01-31T17:14:32.976Z,98607.69
2023-01-31T17:17:45.581Z,98600.85
2023-01-31T17:20:57.973Z,98593.00
2023-01-31T17:24:13.808Z,98593.36
2023-01-31T17:27:27.442Z,98588.13
2023-01-31T17:30:40.906Z,98585.52
2023-01-31T17:33:53.890Z,98587.02
2023-01-31T17:37:06.391Z,98591.50
2023-01-31T17:40:19.878Z,98589.64
2023-01-31T17:43:32.143Z,98583.39
2023-01-31T17:46:44.424Z,98585.70
2023-01-31T17:49:57.500Z,98597.77
2023-01-31T17:53:09.587Z,98585.55
2023-01-31T17:56:21.975Z,98587.21
2023-01-31T17:59:35.901Z,98585.28
2023-01-31T18:02:48.579Z,98583.31
2023-01-31T18:06:08.262Z,98587.23
2023-01-31T18:09:21.265Z,98573.78
2023-01-31T18:12:35.511Z,98575.48
2023-01-31T18:15:48.793Z,98563.14
2023-01-31T18:19:01.331Z,98557.91
2023-01-31T18:22:14.278Z,98558.83
2023-01-31T18:25:26.596Z,98543.88
2023-01-31T18:28:39.594Z,98534.25
2023-01-31T18:31:51.988Z,98531.53
2023-01-31T18:42:27.990Z,98523.41
2023-01-31T18:45:40.353Z,98523.13
2023-01-31T18:48:53.146Z,98522.92
2023-01-31T18:52:06.491Z,98519.46
2023-01-31T18:59:00.308Z,98515.92
2023-01-31T19:06:47.572Z,98513.41
2023-01-31T19:10:00.193Z,98507.22
2023-01-31T19:13:20.362Z,98502.36
2023-01-31T19:16:34.484Z,98488.25
2023-01-31T19:27:16.473Z,98461.22
2023-01-31T19:30:29.207Z,98465.44
2023-01-31T19:33:41.597Z,98448.88
2023-01-31T19:36:54.140Z,98451.39
2023-01-31T19:40:06.647Z,98452.14
2023-01-31T19:43:18.860Z,98439.80
2023-01-31T19:46:37.206Z,98432.78
2023-01-31T19:49:49.599Z,98427.38
2023-01-31T19:53:02.316Z,98409.78
2023-01-31T19:56:16.369Z,98404.34
2023-01-31T19:59:28.987Z,98405.83
2023-01-31T20:02:46.004Z,98405.53
2023-01-31T20:05:58.577Z,98411.41
2023-01-31T20:09:14.540Z,98395.59
2023-01-31T20:19:50.625Z,98394.79
2023-01-31T20:26:43.479Z,98382.33
2023-01-31T20:29:55.699Z,98394.50
2023-01-31T20:33:18.898Z,98386.53
2023-01-31T20:36:32.010Z,98386.23
2023-01-31T20:39:45.140Z,98385.83
2023-01-31T20:42:57.957Z,98381.11
2023-01-31T20:46:32.273Z,98390.45
2023-01-31T20:53:28.795Z,98368.14
2023-01-31T20:56:52.126Z,98364.45
2023-01-31T21:11:25.205Z,98366.14
2023-01-31T21:18:25.648Z,98346.32
2023-01-31T21:21:48.056Z,98331.55
2023-01-31T21:25:00.291Z,98325.89
2023-01-31T21:48:07.107Z,98318.76
2023-01-31T22:05:18.785Z,98311.41
2023-01-31T22:19:43.162Z,98296.41
2023-01-31T22:34:34.362Z,98298.41
2023-01-31T22:52:34.890Z,98261.76
